Time;durP1;ratioP1;P1;durP2;ratioP2;P2;SDS_P1;SDS_P2;PMS_P1;PMS_P2;Temp;Humidity;BMP_temperature;BMP_pressure;BME280_temperature;BME280_humidity;BME280_pressure;Samples;Min_cycle;Max_cycle;Signal;HPM_P1;HPM_P2
2023/01/12 00:01:54;;;;;;;9.15;2.95;;;28.30;84.90;;;;;;5063348;28;20366;-67
2023/01/12 00:04:22;;;;;;;10.15;3.65;;;28.80;79.30;;;;;;5077201;28;20036;-67
2023/01/12 00:06:49;;;;;;;6.47;3.13;;;28.50;80.50;;;;;;5072217;28;20037;-67
2023/01/12 00:09:16;;;;;;;7.32;3.55;;;28.30;80.20;;;;;;5083380;28;20127;-68
2023/01/12 00:11:43;;;;;;;9.07;5.78;;;28.50;80.50;;;;;;5075093;28;20083;-68
2023/01/12 00:14:11;;;;;;;7.45;3.45;;;28.70;80.30;;;;;;5083029;28;20020;-67
2023/01/12 00:16:39;;;;;;;7.13;3.97;;;29.10;78.70;;;;;;5070297;28;20393;-68
2023/01/12 00:19:09;;;;;;;7.65;4.50;;;28.60;77.10;;;;;;5085517;28;20428;-68
2023/01/12 00:24:45;;;;;;;8.60;4.22;;;29.10;79.90;;;;;;5070338;28;20488;-68
2023/01/12 00:27:20;;;;;;;7.85;3.55;;;29.80;76.30;;;;;;5073876;28;20525;-68
2023/01/12 00:29:48;;;;;;;5.03;3.72;;;30.30;74.00;;;;;;5076665;28;20040;-68
2023/01/12 00:32:18;;;;;;;8.40;3.90;;;30.70;75.10;;;;;;5070392;28;20025;-68
2023/01/12 00:34:45;;;;;;;7.18;3.95;;;30.80;67.90;;;;;;5079700;28;20040;-68
2023/01/12 00:37:13;;;;;;;6.65;4.47;;;30.70;70.50;;;;;;5074751;28;20024;-67
2023/01/12 00:39:40;;;;;;;8.00;4.55;;;30.90;70.80;;;;;;5083672;28;20093;-67
2023/01/12 00:47:38;;;;;;;9.45;3.10;;;31.40;71.40;;;;;;5059854;28;20138;-68
2023/01/12 00:50:05;;;;;;;5.78;2.10;;;32.10;69.10;;;;;;5071186;28;20029;-67
2023/01/12 00:52:33;;;;;;;5.68;1.80;;;32.50;69.40;;;;;;5067246;28;20548;-68
2023/01/12 00:55:00;;;;;;;6.20;2.30;;;32.70;66.50;;;;;;5067839;28;20047;-68
2023/01/12 00:57:28;;;;;;;7.03;3.40;;;32.40;64.70;;;;;;5073147;28;20036;-68
2023/01/12 00:59:58;;;;;;;8.68;4.15;;;32.00;61.90;;;;;;5075391;28;20027;-68
2023/01/12 01:02:26;;;;;;;10.00;4.60;;;31.10;69.70;;;;;;5065464;28;20024;-67
2023/01/12 01:04:53;;;;;;;5.57;3.13;;;31.60;68.00;;;;;;5061827;28;20559;-68
2023/01/12 01:07:20;;;;;;;5.13;2.53;;;31.70;66.60;;;;;;5065015;28;20029;-65
2023/01/12 01:09:48;;;;;;;7.85;3.05;;;32.00;67.60;;;;;;5067530;28;20029;-67
2023/01/12 01:12:15;;;;;;;5.65;2.13;;;31.80;63.30;;;;;;5082457;28;20024;-68
2023/01/12 01:14:43;;;;;;;6.75;1.75;;;32.00;65.90;;;;;;5068176;28;20029;-67
2023/01/12 01:17:10;;;;;;;4.65;1.77;;;32.10;64.60;;;;;;5065494;28;21002;-67
2023/01/12 01:19:38;;;;;;;8.68;2.03;;;32.00;66.50;;;;;;5070998;28;20052;-68
2023/01/12 01:22:05;;;;;;;6.53;2.30;;;31.40;63.20;;;;;;5067058;28;20350;-67
2023/01/12 01:24:32;;;;;;;6.28;2.15;;;31.00;63.70;;;;;;5063175;28;20024;-68
2023/01/12 01:27:00;;;;;;;8.85;2.67;;;31.30;66.60;;;;;;5067080;28;20032;-68
2023/01/12 01:29:27;;;;;;;5.65;2.47;;;31.80;65.40;;;;;;5067727;28;20024;-68
2023/01/12 01:31:57;;;;;;;6.32;2.75;;;32.40;67.50;;;;;;5067488;28;20021;-68
2023/01/12 01:34:25;;;;;;;6.53;3.15;;;33.10;68.90;;;;;;5066096;28;20032;-68
2023/01/12 01:36:52;;;;;;;5.47;3.30;;;33.30;60.40;;;;;;5064440;28;20166;-67
2023/01/12 01:39:19;;;;;;;10.43;2.60;;;33.30;61.80;;;;;;5064661;28;20401;-67
2023/01/12 01:41:47;;;;;;;6.28;1.90;;;32.70;59.70;;;;;;5066606;28;20373;-67
2023/01/12 01:44:30;;;;;;;7.30;2.42;;;31.80;61.70;;;;;;5066739;28;20032;-67
2023/01/12 01:47:07;;;;;;;8.82;1.90;;;31.80;62.70;;;;;;5067471;28;20032;-67
2023/01/12 01:49:48;;;;;;;9.63;2.10;;;31.00;64.80;;;;;;5067109;28;20751;-67
2023/01/12 01:52:24;;;;;;;6.35;2.13;;;30.60;66.60;;;;;;5067439;28;20032;-69
2023/01/12 01:54:58;;;;;;;4.93;2.20;;;30.80;66.10;;;;;;5068126;28;20052;-67
2023/01/12 01:57:32;;;;;;;6.38;1.88;;;31.00;66.90;;;;;;5070001;28;20031;-67
2023/01/12 02:00:02;;;;;;;5.78;2.20;;;31.40;66.90;;;;;;5063920;28;20031;-68
2023/01/12 02:02:29;;;;;;;6.20;1.92;;;31.70;63.80;;;;;;5068875;28;20793;-67
2023/01/12 02:04:57;;;;;;;4.60;1.98;;;31.70;64.90;;;;;;5070573;28;20028;-68
2023/01/12 02:07:24;;;;;;;6.35;2.55;;;31.50;65.10;;;;;;5066439;28;20025;-68
2023/01/12 02:09:51;;;;;;;6.55;3.10;;;31.70;65.20;;;;;;5065433;28;20040;-68
2023/01/12 02:18:09;;;;;;;6.13;2.55;;;32.70;64.10;;;;;;5063276;28;20047;-66
2023/01/12 02:21:09;;;;;;;6.63;2.95;;;33.20;62.80;;;;;;5067679;28;20120;-65
2023/01/12 02:24:19;;;;;;;6.10;3.55;;;33.00;61.40;;;;;;5061753;28;20021;-66
2023/01/12 02:27:07;;;;;;;6.90;3.20;;;33.20;61.30;;;;;;5068668;28;20449;-65
2023/01/12 02:30:04;;;;;;;4.20;2.70;;;33.40;61.50;;;;;;5070151;28;20028;-65
2023/01/12 02:32:40;;;;;;;5.25;2.40;;;33.30;59.70;;;;;;5072510;28;21363;-65
2023/01/12 02:35:19;;;;;;;6.18;2.58;;;33.20;58.80;;;;;;5071382;28;20025;-64
2023/01/12 02:38:05;;;;;;;6.55;2.97;;;33.30;62.40;;;;;;5071479;28;20012;-64
2023/01/12 02:40:42;;;;;;;11.98;3.80;;;33.60;60.50;;;;;;5070919;28;20557;-64
2023/01/12 02:43:27;;;;;;;5.38;3.08;;;33.90;62.50;;;;;;5068450;28;20115;-65
2023/01/12 02:46:19;;;;;;;8.00;4.00;;;34.40;60.40;;;;;;5068699;28;20040;-65
2023/01/12 02:49:07;;;;;;;7.43;3.67;;;34.00;59.10;;;;;;5068316;28;20040;-66
2023/01/12 02:51:58;;;;;;;6.28;4.30;;;34.00;59.50;;;;;;5069587;28;20020;-65
2023/01/12 02:54:27;;;;;;;6.80;3.33;;;34.00;60.70;;;;;;5069048;28;20607;-65
2023/01/12 02:57:00;;;;;;;7.32;3.60;;;34.70;57.80;;;;;;5069985;28;20039;-66
2023/01/12 02:59:35;;;;;;;5.53;3.50;;;34.20;57.60;;;;;;5070829;28;20025;-65
2023/01/12 03:02:12;;;;;;;7.07;4.28;;;33.80;57.20;;;;;;5075555;28;20035;-65
2023/01/12 03:04:40;;;;;;;6.35;4.43;;;33.80;58.50;;;;;;5071624;28;20032;-65
2023/01/12 03:07:30;;;;;;;5.88;3.78;;;33.60;59.10;;;;;;5073257;28;20029;-64
2023/01/12 03:10:09;;;;;;;8.25;4.05;;;33.50;58.40;;;;;;5069918;28;20032;-67
2023/01/12 03:12:37;;;;;;;10.25;4.25;;;33.60;59.80;;;;;;5070873;28;20032;-67
2023/01/12 03:15:09;;;;;;;9.63;4.00;;;33.60;59.40;;;;;;5072223;28;20023;-65
2023/01/12 03:17:49;;;;;;;18.40;4.32;;;33.40;60.10;;;;;;5069657;28;20029;-65
2023/01/12 03:20:40;;;;;;;9.20;4.05;;;33.20;61.20;;;;;;5067951;28;20027;-65
2023/01/12 03:23:31;;;;;;;8.82;4.50;;;33.00;61.30;;;;;;5071173;28;20047;-65
2023/01/12 03:25:59;;;;;;;9.75;5.60;;;32.60;62.90;;;;;;5071930;28;20028;-66
2023/01/12 03:28:31;;;;;;;9.88;4.75;;;32.20;63.50;;;;;;5071717;28;20039;-65
2023/01/12 03:31:10;;;;;;;9.63;5.43;;;32.00;63.50;;;;;;5056885;28;20070;-66
2023/01/12 03:33:42;;;;;;;14.55;5.00;;;31.90;65.60;;;;;;5082142;28;20100;-66
2023/01/12 03:36:15;;;;;;;10.57;5.22;;;32.00;64.20;;;;;;5077686;28;20039;-66
2023/01/12 03:39:01;;;;;;;13.88;5.22;;;31.50;66.30;;;;;;5075066;28;20115;-67
2023/01/12 03:42:04;;;;;;;7.53;5.22;;;31.40;66.50;;;;;;5081105;28;20489;-67
2023/01/12 03:44:39;;;;;;;8.52;6.05;;;31.30;67.10;;;;;;5074736;28;20023;-67
2023/01/12 03:47:20;;;;;;;10.65;5.28;;;31.10;67.20;;;;;;5067193;28;20034;-66
2023/01/12 03:50:05;;;;;;;9.07;4.68;;;31.10;67.10;;;;;;5072440;28;20512;-67
2023/01/12 03:52:36;;;;;;;11.43;4.97;;;31.00;68.80;;;;;;5077891;28;20032;-66
2023/01/12 03:55:08;;;;;;;7.65;4.25;;;31.20;68.20;;;;;;5075369;28;20044;-67
2023/01/12 03:57:37;;;;;;;9.52;4.15;;;31.50;66.90;;;;;;5063503;28;20231;-67
2023/01/12 04:00:09;;;;;;;11.35;5.13;;;31.10;67.10;;;;;;5080310;28;20107;-67
2023/01/12 04:02:36;;;;;;;9.50;4.82;;;31.30;69.10;;;;;;5071215;28;20254;-67
2023/01/12 04:05:06;;;;;;;10.05;5.38;;;31.40;67.20;;;;;;5072923;28;20024;-67
2023/01/12 04:07:33;;;;;;;9.73;5.00;;;31.20;68.00;;;;;;5071683;28;20023;-66
2023/01/12 04:10:01;;;;;;;7.53;4.97;;;31.50;68.00;;;;;;5072855;28;20028;-66
2023/01/12 04:12:28;;;;;;;11.13;5.10;;;31.50;67.60;;;;;;5074905;28;20489;-66
2023/01/12 04:14:55;;;;;;;8.80;5.43;;;31.10;66.20;;;;;;5076490;28;20020;-66
2023/01/12 04:17:24;;;;;;;6.85;4.70;;;30.80;69.00;;;;;;5073594;28;20116;-66
2023/01/12 04:19:54;;;;;;;10.63;5.18;;;30.50;68.60;;;;;;5076121;28;20389;-66
2023/01/12 04:25:07;;;;;;;10.60;5.30;;;30.10;70.40;;;;;;5076694;28;20115;-67
2023/01/12 04:27:34;;;;;;;8.40;4.53;;;30.20;70.60;;;;;;5063170;28;20077;-66
2023/01/12 04:30:02;;;;;;;11.80;5.47;;;30.10;70.10;;;;;;5074058;28;20075;-66
2023/01/12 04:32:29;;;;;;;12.52;4.72;;;30.30;70.70;;;;;;5074054;28;20121;-66
2023/01/12 04:34:56;;;;;;;10.98;4.70;;;30.20;70.30;;;;;;5076873;28;20028;-66
2023/01/12 04:37:24;;;;;;;8.25;4.35;;;29.90;70.30;;;;;;5073556;28;20513;-66
2023/01/12 04:39:51;;;;;;;16.45;4.47;;;29.90;70.70;;;;;;5072767;28;20024;-66
2023/01/12 04:45:04;;;;;;;17.00;4.45;;;29.80;72.00;;;;;;5068029;28;20086;-66
2023/01/12 04:47:32;;;;;;;11.77;3.53;;;30.00;71.70;;;;;;5070853;28;20016;-66
2023/01/12 04:49:59;;;;;;;11.30;4.22;;;29.90;72.00;;;;;;5072819;28;20036;-65
2023/01/12 04:52:27;;;;;;;10.70;4.30;;;29.90;71.90;;;;;;5073071;28;20078;-66
2023/01/12 04:54:54;;;;;;;10.05;4.07;;;29.90;71.80;;;;;;5067939;28;20044;-66
2023/01/12 04:57:21;;;;;;;8.73;4.28;;;29.80;71.80;;;;;;5069605;28;20027;-66
2023/01/12 04:59:51;;;;;;;8.07;3.60;;;29.70;71.60;;;;;;5082951;28;20028;-66
2023/01/12 05:02:19;;;;;;;9.15;3.60;;;29.70;72.90;;;;;;5069058;28;20039;-65
2023/01/12 05:04:47;;;;;;;10.95;4.05;;;29.60;72.60;;;;;;5054308;28;20284;-66
2023/01/12 05:07:15;;;;;;;8.10;4.05;;;29.20;73.60;;;;;;5050928;28;20104;-69
2023/01/12 05:12:27;;;;;;;12.55;3.72;;;29.20;75.70;;;;;;5070980;28;20035;-67
2023/01/12 05:14:55;;;;;;;6.88;3.60;;;29.50;74.70;;;;;;5072220;28;20054;-69
2023/01/12 05:17:22;;;;;;;9.02;3.65;;;29.50;73.60;;;;;;5072242;28;20043;-69
2023/01/12 05:19:49;;;;;;;6.75;3.72;;;29.40;74.30;;;;;;5075919;28;20567;-67
2023/01/12 05:22:16;;;;;;;7.97;3.63;;;29.30;74.60;;;;;;5060904;28;20124;-68
2023/01/12 05:24:44;;;;;;;11.10;3.60;;;29.00;75.00;;;;;;5064796;28;20026;-68
2023/01/12 05:27:11;;;;;;;7.32;3.17;;;29.00;76.70;;;;;;5071681;28;20078;-68
2023/01/12 05:29:38;;;;;;;7.00;3.72;;;29.10;76.30;;;;;;5064962;28;20036;-68
2023/01/12 05:32:06;;;;;;;11.68;4.95;;;28.80;76.40;;;;;;5063459;28;20032;-68
2023/01/12 05:34:33;;;;;;;10.65;3.40;;;28.60;77.20;;;;;;5068696;28;20028;-68
2023/01/12 05:37:01;;;;;;;6.35;3.72;;;28.60;78.30;;;;;;5058221;28;20032;-68
2023/01/12 05:39:28;;;;;;;6.57;3.97;;;28.50;78.50;;;;;;5066847;28;20405;-68
2023/01/12 05:44:46;;;;;;;7.32;3.58;;;28.80;77.30;;;;;;5052484;28;20444;-68
2023/01/12 05:47:13;;;;;;;6.90;3.08;;;29.00;77.00;;;;;;5068141;28;20025;-68
2023/01/12 05:49:41;;;;;;;8.30;4.20;;;28.80;76.70;;;;;;5064259;28;20738;-68
2023/01/12 05:52:08;;;;;;;7.70;3.20;;;28.80;76.30;;;;;;5072823;28;20017;-70
2023/01/12 05:54:35;;;;;;;7.30;3.42;;;28.70;76.00;;;;;;5072922;28;20045;-69
2023/01/12 05:57:03;;;;;;;6.95;2.85;;;28.40;77.30;;;;;;5064383;28;20021;-68
2023/01/12 05:59:30;;;;;;;5.97;3.17;;;28.30;78.50;;;;;;5061207;28;20081;-68
2023/01/12 06:01:57;;;;;;;8.98;3.38;;;28.40;78.20;;;;;;5071003;28;20074;-75
2023/01/12 06:04:24;;;;;;;8.20;3.15;;;28.30;78.50;;;;;;5072380;28;20028;-73
2023/01/12 06:06:52;;;;;;;6.15;3.17;;;28.20;77.70;;;;;;5083549;28;20043;-74
2023/01/12 06:09:19;;;;;;;6.57;3.40;;;28.20;78.20;;;;;;5072120;28;20127;-74
2023/01/12 06:14:32;;;;;;;7.78;3.40;;;28.20;77.70;;;;;;5065369;28;20450;-76
2023/01/12 06:16:59;;;;;;;7.05;3.20;;;27.80;78.20;;;;;;5069529;28;20192;-71
2023/01/12 06:19:26;;;;;;;8.32;3.92;;;27.80;79.60;;;;;;5079953;28;20024;-75
2023/01/12 06:21:54;;;;;;;6.70;3.20;;;27.50;79.50;;;;;;5080334;28;20028;-77
2023/01/12 06:24:21;;;;;;;6.15;3.33;;;27.50;80.20;;;;;;5072591;28;20028;-76
2023/01/12 06:26:49;;;;;;;7.20;3.45;;;27.40;80.60;;;;;;5086228;28;20033;-73
2023/01/12 06:29:16;;;;;;;7.63;3.75;;;27.40;80.50;;;;;;5078172;28;20043;-73
2023/01/12 06:31:43;;;;;;;9.13;3.40;;;27.10;79.70;;;;;;5069070;28;20096;-74
2023/01/12 06:34:11;;;;;;;8.30;3.40;;;26.90;80.80;;;;;;5078949;28;20478;-70
2023/01/12 06:36:39;;;;;;;8.15;3.63;;;26.70;82.20;;;;;;5088572;28;20024;-73
2023/01/12 06:39:06;;;;;;;7.18;3.72;;;26.70;84.20;;;;;;5068157;28;20033;-73
2023/01/12 06:44:20;;;;;;;6.60;3.08;;;26.90;81.60;;;;;;5071734;28;20040;-76
2023/01/12 06:46:47;;;;;;;8.93;3.25;;;26.90;81.70;;;;;;5073869;28;20021;-80
2023/01/12 06:49:15;;;;;;;7.25;2.72;;;27.00;81.00;;;;;;5073128;28;20115;-71
2023/01/12 06:51:46;;;;;;;6.95;3.55;;;27.00;81.60;;;;;;5073202;28;20035;-79
2023/01/12 06:54:13;;;;;;;4.72;2.92;;;26.90;80.90;;;;;;5072987;28;20032;-78
2023/01/12 06:56:41;;;;;;;9.60;3.20;;;26.70;81.30;;;;;;5072087;28;20024;-78
2023/01/12 06:59:11;;;;;;;6.80;3.25;;;26.40;83.00;;;;;;5074168;28;20039;-80
2023/01/12 07:01:39;;;;;;;8.68;3.42;;;26.30;84.20;;;;;;5070042;28;20835;-79
2023/01/12 07:04:07;;;;;;;7.20;3.33;;;26.00;85.50;;;;;;5070470;28;20020;-79
2023/01/12 07:06:34;;;;;;;5.15;3.17;;;25.80;86.40;;;;;;5072398;28;20013;-79
2023/01/12 07:09:02;;;;;;;5.38;2.80;;;25.90;86.60;;;;;;5071813;28;20115;-78
2023/01/12 07:11:29;;;;;;;5.47;2.80;;;25.80;86.80;;;;;;5072406;28;20040;-77
2023/01/12 07:13:56;;;;;;;8.13;2.97;;;25.90;86.70;;;;;;5058287;28;20032;-73
2023/01/12 07:16:24;;;;;;;4.78;2.78;;;25.80;86.60;;;;;;5069280;28;20029;-78
2023/01/12 07:18:51;;;;;;;14.45;2.85;;;25.80;87.50;;;;;;5069545;28;20078;-76
2023/01/12 07:21:19;;;;;;;6.22;2.55;;;25.90;86.30;;;;;;5069274;28;20017;-78
2023/01/12 07:23:46;;;;;;;5.28;2.25;;;25.90;86.70;;;;;;5069109;28;20033;-72
2023/01/12 07:26:13;;;;;;;7.47;2.60;;;26.00;85.50;;;;;;5069281;28;20024;-77
2023/01/12 07:28:41;;;;;;;4.25;2.40;;;26.10;85.00;;;;;;5068141;28;20127;-78
2023/01/12 07:31:09;;;;;;;4.38;2.30;;;26.20;84.60;;;;;;5068881;28;20024;-79
2023/01/12 07:33:37;;;;;;;4.70;2.30;;;26.00;84.20;;;;;;5069396;28;20064;-76
2023/01/12 07:36:04;;;;;;;5.75;2.20;;;25.90;85.20;;;;;;5068729;28;20024;-74
2023/01/12 07:38:32;;;;;;;3.60;2.00;;;25.80;85.10;;;;;;5067122;28;20048;-77
2023/01/12 07:41:01;;;;;;;5.55;2.60;;;25.60;85.10;;;;;;5065761;28;20110;-75
2023/01/12 07:43:29;;;;;;;7.55;2.08;;;25.30;85.10;;;;;;5068809;28;20389;-75
2023/01/12 07:45:58;;;;;;;5.03;1.80;;;25.00;86.50;;;;;;5058143;28;20032;-76
2023/01/12 07:48:26;;;;;;;6.00;2.38;;;24.80;88.00;;;;;;5068173;28;20120;-77
2023/01/12 07:50:54;;;;;;;4.25;1.65;;;24.70;89.00;;;;;;5061651;28;20020;-75
2023/01/12 07:53:21;;;;;;;4.13;1.73;;;24.60;89.70;;;;;;5067122;28;20398;-75
2023/01/12 07:55:48;;;;;;;3.72;1.75;;;24.50;89.30;;;;;;5067866;28;20044;-75
2023/01/12 07:58:15;;;;;;;5.35;1.67;;;24.40;90.30;;;;;;5068194;28;20153;-70
2023/01/12 08:00:43;;;;;;;5.55;1.90;;;24.30;90.90;;;;;;5067078;28;20023;-74
2023/01/12 08:03:15;;;;;;;4.30;1.45;;;24.20;91.30;;;;;;5066589;28;20393;-73
2023/01/12 08:05:42;;;;;;;6.72;1.90;;;24.20;91.70;;;;;;5068572;28;20052;-74
2023/01/12 08:08:10;;;;;;;8.90;2.00;;;24.10;91.90;;;;;;5067255;28;20056;-76
2023/01/12 08:10:37;;;;;;;3.10;1.80;;;24.10;92.10;;;;;;5067431;28;20039;-77
2023/01/12 08:13:04;;;;;;;5.43;1.20;;;24.00;92.40;;;;;;5067772;28;20027;-75
2023/01/12 08:15:37;;;;;;;3.00;1.15;;;23.90;92.70;;;;;;5067406;28;20031;-76
2023/01/12 08:18:09;;;;;;;7.95;1.88;;;23.90;93.10;;;;;;5067315;28;20024;-75
2023/01/12 08:20:37;;;;;;;4.38;1.40;;;23.80;93.10;;;;;;5067944;28;20545;-74
2023/01/12 08:23:17;;;;;;;4.70;1.13;;;23.70;93.30;;;;;;5066792;28;20466;-75
2023/01/12 08:25:53;;;;;;;3.45;1.40;;;23.70;93.80;;;;;;5068356;28;20377;-76
2023/01/12 08:28:27;;;;;;;2.67;1.33;;;23.60;93.60;;;;;;5067307;28;20397;-77
2023/01/12 08:30:55;;;;;;;5.03;1.65;;;23.60;93.90;;;;;;5067299;28;20020;-77
2023/01/12 08:33:22;;;;;;;4.43;1.33;;;23.60;94.00;;;;;;5067857;28;20078;-76
2023/01/12 08:35:50;;;;;;;4.00;1.13;;;23.50;94.30;;;;;;5066390;28;20033;-75
2023/01/12 08:38:18;;;;;;;3.78;1.27;;;23.50;94.30;;;;;;5066648;28;20103;-77
2023/01/12 08:46:16;;;;;;;3.22;1.40;;;23.30;94.60;;;;;;5061620;28;20086;-72
2023/01/12 08:48:44;;;;;;;4.05;1.20;;;23.20;94.70;;;;;;5067007;28;20064;-76
2023/01/12 08:51:11;;;;;;;5.50;1.27;;;23.20;94.60;;;;;;5067146;28;20021;-75
2023/01/12 08:53:39;;;;;;;6.22;1.38;;;23.10;95.10;;;;;;5066817;28;20059;-75
2023/01/12 08:56:06;;;;;;;5.50;1.20;;;23.00;94.70;;;;;;5067552;28;20225;-74
2023/01/12 08:58:34;;;;;;;7.72;2.60;;;23.00;95.10;;;;;;5066472;28;20052;-77
2023/01/12 09:01:09;;;;;;;6.25;1.27;;;23.00;95.40;;;;;;5066067;28;20035;-75
2023/01/12 09:03:38;;;;;;;4.63;1.20;;;22.90;95.80;;;;;;5066729;28;20052;-76
2023/01/12 09:06:14;;;;;;;5.18;1.15;;;22.90;95.90;;;;;;5066269;28;20111;-74
2023/01/12 09:08:41;;;;;;;6.72;1.75;;;22.90;96.30;;;;;;5066949;28;20037;-76
2023/01/12 09:11:10;;;;;;;5.28;1.58;;;22.80;96.30;;;;;;5065454;28;20020;-73
2023/01/12 09:13:38;;;;;;;7.65;1.80;;;22.70;96.40;;;;;;5066957;28;20390;-74
2023/01/12 09:16:06;;;;;;;5.43;1.10;;;22.70;96.60;;;;;;5066753;28;20410;-75
2023/01/12 09:18:34;;;;;;;4.72;1.23;;;22.70;96.70;;;;;;5067107;28;20032;-75
2023/01/12 09:21:14;;;;;;;5.47;1.10;;;22.60;96.90;;;;;;5066796;28;20489;-75
2023/01/12 09:23:42;;;;;;;6.15;1.45;;;22.60;97.20;;;;;;5066333;28;20059;-75
2023/01/12 09:26:11;;;;;;;7.20;1.40;;;22.50;97.60;;;;;;5064484;28;20627;-75
2023/01/12 09:28:38;;;;;;;6.03;1.30;;;22.40;98.40;;;;;;5067181;28;20404;-75
2023/01/12 09:31:12;;;;;;;7.80;1.30;;;22.30;98.60;;;;;;5066640;28;20098;-74
2023/01/12 09:33:41;;;;;;;5.43;1.90;;;22.30;98.90;;;;;;5066797;28;20489;-75
2023/01/12 09:36:11;;;;;;;5.80;1.67;;;22.20;99.20;;;;;;5066283;28;20389;-75
2023/01/12 09:38:40;;;;;;;6.20;1.80;;;22.10;99.40;;;;;;5065443;28;20085;-75
2023/01/12 09:47:09;;;;;;;7.15;1.88;;;22.00;99.90;;;;;;5051026;28;20063;-74
2023/01/12 09:49:43;;;;;;;5.53;1.80;;;21.90;99.90;;;;;;5056491;28;20102;-75
2023/01/12 09:52:13;;;;;;;4.88;1.45;;;21.80;99.90;;;;;;5068618;28;20055;-75
2023/01/12 09:54:41;;;;;;;5.88;1.23;;;21.80;99.90;;;;;;5068825;28;20076;-74
2023/01/12 09:57:53;;;;;;;9.80;1.77;;;21.70;99.90;;;;;;5070354;28;20033;-74
2023/01/12 10:00:21;;;;;;;5.32;1.50;;;21.70;99.90;;;;;;5043985;28;20464;-73
2023/01/12 10:03:13;;;;;;;7.35;1.38;;;21.60;99.90;;;;;;5070420;28;20472;-73
2023/01/12 10:05:50;;;;;;;5.28;2.13;;;21.50;99.90;;;;;;5069867;28;20020;-72
2023/01/12 10:08:44;;;;;;;6.85;2.03;;;21.40;99.90;;;;;;5070629;28;20106;-73
2023/01/12 10:11:23;;;;;;;6.55;1.52;;;21.40;99.90;;;;;;5061585;28;20089;-72
2023/01/12 10:14:16;;;;;;;7.25;1.65;;;21.30;99.90;;;;;;5070235;28;20420;-73
2023/01/12 10:16:58;;;;;;;3.60;1.45;;;21.30;99.90;;;;;;5076994;28;20033;-73
2023/01/12 10:19:35;;;;;;;8.60;2.00;;;21.20;99.90;;;;;;5058137;28;20454;-72
2023/01/12 10:22:35;;;;;;;8.07;1.65;;;21.20;99.90;;;;;;5065975;28;20021;-72
2023/01/12 10:25:43;;;;;;;6.07;1.92;;;21.20;99.90;;;;;;5066280;28;20028;-72
2023/01/12 10:28:13;;;;;;;8.20;1.75;;;21.20;99.90;;;;;;5066585;28;20086;-72
2023/01/12 10:30:41;;;;;;;8.75;1.90;;;21.20;99.90;;;;;;5069278;28;20847;-72
2023/01/12 10:33:30;;;;;;;7.05;1.75;;;21.20;99.90;;;;;;5070156;28;20036;-72
2023/01/12 10:36:22;;;;;;;9.15;1.77;;;21.10;99.90;;;;;;5069802;28;20126;-73
2023/01/12 10:38:58;;;;;;;10.60;2.38;;;21.10;99.90;;;;;;5051129;28;20032;-72
2023/01/12 10:41:30;;;;;;;11.82;2.60;;;21.00;99.90;;;;;;5067625;28;20020;-72
2023/01/12 10:44:00;;;;;;;10.27;3.08;;;20.90;99.90;;;;;;5069739;28;20099;-72
2023/01/12 10:46:30;;;;;;;6.38;2.28;;;20.90;99.90;;;;;;5069381;28;20050;-72
2023/01/12 10:49:23;;;;;;;7.72;1.70;;;20.80;99.90;;;;;;5068534;28;20491;-72
2023/01/12 10:51:58;;;;;;;6.88;1.48;;;20.70;99.90;;;;;;5049370;28;20025;-72
2023/01/12 10:54:27;;;;;;;5.75;1.67;;;20.70;99.90;;;;;;5057627;28;20032;-72
2023/01/12 10:57:03;;;;;;;5.53;1.67;;;20.70;99.90;;;;;;5069169;28;20029;-73
2023/01/12 10:59:34;;;;;;;8.10;1.70;;;20.70;99.90;;;;;;5069317;28;20036;-72
2023/01/12 11:02:07;;;;;;;11.32;2.10;;;20.70;99.90;;;;;;5068967;28;20024;-72
2023/01/12 11:04:51;;;;;;;6.37;2.03;;;20.70;99.90;;;;;;5069608;28;20032;-73
2023/01/12 11:07:27;;;;;;;6.45;2.25;;;20.70;99.90;;;;;;5068220;28;20111;-70
2023/01/12 11:10:15;;;;;;;11.60;2.13;;;20.70;99.90;;;;;;5067329;28;20093;-70
2023/01/12 11:12:52;;;;;;;11.98;2.10;;;20.80;99.90;;;;;;5067871;28;20021;-71
2023/01/12 11:15:20;;;;;;;10.25;1.75;;;20.80;99.90;;;;;;5070444;28;20032;-71
2023/01/12 11:18:10;;;;;;;6.93;2.05;;;20.80;99.90;;;;;;5071774;28;20433;-71
2023/01/12 11:21:05;;;;;;;6.03;2.08;;;20.80;99.90;;;;;;5071441;28;20031;-70
2023/01/12 11:23:40;;;;;;;6.68;1.52;;;20.80;99.90;;;;;;5071398;28;20020;-71
2023/01/12 11:26:23;;;;;;;4.55;1.65;;;20.90;99.90;;;;;;5071754;28;20085;-71
2023/01/12 11:28:55;;;;;;;6.43;2.13;;;20.80;99.90;;;;;;5071690;28;20116;-70
2023/01/12 11:31:32;;;;;;;6.20;1.92;;;20.70;99.90;;;;;;5070166;28;20025;-70
2023/01/12 11:34:08;;;;;;;8.40;1.48;;;20.70;99.90;;;;;;5071372;28;20111;-70
2023/01/12 11:36:42;;;;;;;5.90;1.58;;;20.70;99.90;;;;;;5071614;28;20017;-72
2023/01/12 11:39:35;;;;;;;7.73;1.90;;;20.60;99.90;;;;;;5071475;28;20039;-72
2023/01/12 11:45:13;;;;;;;8.77;1.83;;;20.50;99.90;;;;;;5071176;28;20042;-71
2023/01/12 11:47:46;;;;;;;9.77;3.00;;;20.50;99.90;;;;;;5069504;28;20494;-71
2023/01/12 11:50:16;;;;;;;6.53;2.50;;;20.50;99.90;;;;;;5070537;28;20033;-71
2023/01/12 11:52:44;;;;;;;6.90;1.98;;;20.50;99.90;;;;;;5071303;28;20021;-71
2023/01/12 11:55:21;;;;;;;5.80;2.00;;;20.50;99.90;;;;;;5068845;28;20040;-72
2023/01/12 11:58:36;;;;;;;7.78;1.73;;;20.50;99.90;;;;;;5063663;28;20020;-70
2023/01/12 12:01:09;;;;;;;4.27;1.70;;;20.50;99.90;;;;;;5048597;28;20044;-71
2023/01/12 12:03:45;;;;;;;11.18;2.90;;;20.40;99.90;;;;;;5069835;28;20028;-71
2023/01/12 12:06:27;;;;;;;10.70;2.20;;;20.40;99.90;;;;;;5068485;28;20394;-71
2023/01/12 12:09:09;;;;;;;7.00;1.92;;;20.40;99.90;;;;;;5070129;28;20101;-71
2023/01/12 12:11:42;;;;;;;7.68;2.03;;;20.40;99.90;;;;;;5076831;28;20377;-71
2023/01/12 12:14:27;;;;;;;7.68;2.10;;;20.40;99.90;;;;;;5078752;28;20031;-73
2023/01/12 12:16:59;;;;;;;7.38;2.17;;;20.40;99.90;;;;;;5071577;28;20589;-71
2023/01/12 12:19:50;;;;;;;8.20;1.92;;;20.40;99.90;;;;;;5070408;28;20035;-71
2023/01/12 12:22:26;;;;;;;6.57;1.92;;;20.30;99.90;;;;;;5069663;28;20032;-71
2023/01/12 12:25:13;;;;;;;9.77;1.88;;;20.20;99.90;;;;;;5070063;28;20032;-72
2023/01/12 12:28:06;;;;;;;7.63;2.50;;;20.20;99.90;;;;;;5068499;28;20020;-72
2023/01/12 12:31:01;;;;;;;11.35;2.20;;;20.20;99.90;;;;;;5055504;28;20060;-71
2023/01/12 12:34:10;;;;;;;7.55;2.22;;;20.20;99.90;;;;;;5070521;28;20381;-71
2023/01/12 12:36:56;;;;;;;4.63;2.35;;;20.10;99.90;;;;;;5047427;28;20071;-71
2023/01/12 12:39:45;;;;;;;9.45;2.03;;;20.10;99.90;;;;;;5046380;28;20033;-71
2023/01/12 12:45:29;;;;;;;11.02;2.33;;;20.00;99.90;;;;;;5068695;28;20086;-71
2023/01/12 12:48:05;;;;;;;10.25;1.95;;;20.00;99.90;;;;;;5066668;28;20029;-72
2023/01/12 12:50:39;;;;;;;4.18;2.70;;;20.00;99.90;;;;;;5062379;28;20043;-71
2023/01/12 12:53:26;;;;;;;9.02;2.40;;;20.00;99.90;;;;;;5067939;28;20013;-71
2023/01/12 12:55:57;;;;;;;7.40;2.10;;;20.10;99.90;;;;;;5065795;28;20044;-71
2023/01/12 12:58:29;;;;;;;6.20;2.05;;;20.10;99.90;;;;;;5067700;28;20032;-71
2023/01/12 13:01:25;;;;;;;6.80;1.77;;;20.10;99.90;;;;;;5067429;28;20045;-71
2023/01/12 13:03:59;;;;;;;10.52;2.30;;;20.10;99.90;;;;;;5062469;28;20024;-71
2023/01/12 13:06:35;;;;;;;5.85;1.85;;;20.10;99.90;;;;;;5054364;28;20026;-71
2023/01/12 13:09:26;;;;;;;7.63;2.10;;;20.10;99.90;;;;;;5056966;28;20393;-72
2023/01/12 13:12:00;;;;;;;10.98;2.00;;;20.00;99.90;;;;;;5068697;28;20103;-71
2023/01/12 13:14:31;;;;;;;7.07;2.03;;;20.00;99.90;;;;;;5069358;28;20024;-71
2023/01/12 13:17:02;;;;;;;8.93;3.05;;;19.90;99.90;;;;;;5069504;28;20024;-70
2023/01/12 13:19:36;;;;;;;7.50;2.63;;;19.80;99.90;;;;;;5068976;28;20028;-71
2023/01/12 13:22:39;;;;;;;10.15;2.28;;;19.80;99.90;;;;;;5069258;28;20044;-71
2023/01/12 13:25:26;;;;;;;5.43;1.55;;;19.70;99.90;;;;;;5047077;28;20029;-71
2023/01/12 13:28:01;;;;;;;6.13;1.70;;;19.60;99.90;;;;;;5068178;28;20036;-71
2023/01/12 13:30:29;;;;;;;5.88;2.35;;;19.50;99.90;;;;;;5049278;28;20051;-72
2023/01/12 13:33:00;;;;;;;7.88;2.15;;;19.40;99.90;;;;;;5048193;28;20048;-71
2023/01/12 13:35:32;;;;;;;8.20;2.45;;;19.40;99.90;;;;;;5058701;28;20031;-71
2023/01/12 13:38:21;;;;;;;8.77;1.75;;;19.40;99.90;;;;;;5069271;28;20028;-71
2023/01/12 13:40:49;;;;;;;10.52;2.30;;;19.30;99.90;;;;;;5069577;28;20451;-70
2023/01/12 13:43:32;;;;;;;6.43;2.08;;;19.30;99.90;;;;;;5070028;28;20029;-71
2023/01/12 13:46:14;;;;;;;5.30;2.17;;;19.30;99.90;;;;;;5069271;28;20035;-71
2023/01/12 13:48:52;;;;;;;8.40;2.28;;;19.30;99.90;;;;;;5069423;28;20040;-71
2023/01/12 13:51:33;;;;;;;5.13;1.67;;;19.20;99.90;;;;;;5069330;28;20537;-72
2023/01/12 13:54:03;;;;;;;5.55;1.95;;;19.20;99.90;;;;;;5068035;28;20036;-71
2023/01/12 13:56:31;;;;;;;9.88;2.70;;;19.20;99.90;;;;;;5067041;28;20075;-71
2023/01/12 13:59:00;;;;;;;5.15;1.73;;;19.20;99.90;;;;;;5068012;28;20055;-69
2023/01/12 14:01:31;;;;;;;7.70;1.80;;;19.10;99.90;;;;;;5068458;28;20104;-69
2023/01/12 14:04:07;;;;;;;6.70;1.83;;;19.00;99.90;;;;;;5068926;28;20054;-71
2023/01/12 14:07:11;;;;;;;6.68;2.47;;;18.90;99.90;;;;;;5067780;28;20028;-70